Readlyn, Iowa
Current Conditions -  °F | °C
As of 10:15 PM on Thursday 27 Nov 2014 (Local Time) from KOLZ Reporting Station
Overcast Overcast  
Wind Chill:   Ceiling: 7000
Heat Index: 10°   Visibility: 10mi
Dew Point:   Wind: 6mph
Humidity: 67%   Direction: 150°SSE
Pressure: 30.34"   Gusts: NA
Location:  42.7°N, 92.23°W
Report Text: KOLZ 280415Z AUTO 15005KT 10SM FEW045 FEW055 OVC070 M12/M17 A3034 RMK AO2
Loading
Personal Weather Stations






























Interactive Weather Map New forecast layout! Learn more

10-Day Weather Forecast

Advertisements
Track Severe Weather on mobile